Terminal Aerodrome Forecast
Issued by NWS

Home | Current Version | Previous Version | Text Only | Print | Product List | Glossary Off
Versions: 1 2 3 4 5 6 7 8 9 10 11 12 13 14 15 16 17 18

000
FTUS41 KCLE 241700
TAFFDY
TAF
KFDY 241739Z 2418/2518 09008KT P6SM SCT250
     FM242300 09008KT P6SM OVC250
     FM250500 11012KT P6SM BKN050 BKN100
     FM250700 13015KT 5SM -SHRA OVC025
     FM250900 15015G25KT 5SM -SHRA OVC015
     FM251300 23020G32KT P6SM BKN015 BKN050=

USA.gov is the U.S. government's official web portal to all federal, state and local government web resources and services.